Terminal Aerodrome Forecast
Issued by NWS

Current Version | Previous Version | Graphics & Text | Print | Product List | Glossary On
Versions: 1 2 3 4 5 6 7 8 9 10 11 12 13 14 15 16
000
FTUS41 KPBZ 280900 AAB
TAFHLG
TAF AMD
KHLG 280926Z 2809/2906 26008G16KT 3SM -RA OVC003
     FM281200 29008G16KT 6SM -RA OVC007
     FM281500 30007KT P6SM -SHRA OVC015
     FM281700 30006KT P6SM BKN025=

USA.gov is the U.S. government's official web portal to all federal, state and local government web resources and services.